createdAt,value
2023-02-08T00:00:06.398Z,52.42
2023-02-08T00:02:33.089Z,51.38
2023-02-08T00:04:59.819Z,50.63
2023-02-08T00:07:26.489Z,52.42
2023-02-08T00:09:53.227Z,50.03
2023-02-08T00:12:19.910Z,51.45
2023-02-08T00:14:46.655Z,49.70
2023-02-08T00:17:13.383Z,49.85
2023-02-08T00:19:40.115Z,48.80
2023-02-08T00:22:06.789Z,48.75
2023-02-08T00:24:33.592Z,50.60
2023-02-08T00:27:00.291Z,50.75
2023-02-08T00:29:27.001Z,49.58
2023-02-08T00:31:56.772Z,49.03
2023-02-08T00:34:23.464Z,50.58
2023-02-08T00:36:50.095Z,48.22
2023-02-08T00:39:16.772Z,51.95
2023-02-08T00:41:43.448Z,48.15
2023-02-08T00:44:10.113Z,48.28
2023-02-08T00:46:36.851Z,47.63
2023-02-08T00:49:03.564Z,48.17
2023-02-08T00:51:30.491Z,48.00
2023-02-08T00:53:57.195Z,48.95
2023-02-08T00:56:23.879Z,47.00
2023-02-08T00:58:50.563Z,47.38
2023-02-08T01:01:17.371Z,47.58
2023-02-08T01:03:44.201Z,47.30
2023-02-08T01:06:17.451Z,48.55
2023-02-08T01:08:44.326Z,48.33
2023-02-08T01:11:14.296Z,47.38
2023-02-08T01:13:41.413Z,47.33
2023-02-08T01:16:09.525Z,45.97
2023-02-08T01:18:36.594Z,45.17
2023-02-08T01:21:12.411Z,45.90
2023-02-08T01:23:40.067Z,46.58
2023-02-08T01:26:08.291Z,46.33
2023-02-08T01:28:36.145Z,47.13
2023-02-08T01:31:11.794Z,48.10
2023-02-08T01:36:06.550Z,45.05
2023-02-08T01:38:34.081Z,46.78
2023-02-08T01:41:00.910Z,45.10
2023-02-08T01:43:33.280Z,45.67
2023-02-08T01:46:00.239Z,45.08
2023-02-08T01:48:33.764Z,43.97
2023-02-08T01:51:14.084Z,43.38
2023-02-08T01:53:43.001Z,41.50
2023-02-08T01:56:20.433Z,44.72
2023-02-08T01:58:52.366Z,42.83
2023-02-08T02:01:19.300Z,44.63
2023-02-08T02:03:46.073Z,44.80
2023-02-08T02:06:17.225Z,44.22
2023-02-08T02:09:10.159Z,43.70
2023-02-08T02:12:05.209Z,45.28
2023-02-08T02:14:31.609Z,41.42
2023-02-08T02:17:00.870Z,41.50
2023-02-08T02:20:02.443Z,40.55
2023-02-08T02:22:54.885Z,41.40
2023-02-08T02:25:53.135Z,40.92
2023-02-08T02:28:34.835Z,42.45
2023-02-08T02:31:32.389Z,40.78
2023-02-08T02:34:08.119Z,41.78
2023-02-08T02:37:01.442Z,40.75
2023-02-08T02:39:49.821Z,43.30
2023-02-08T02:42:42.749Z,41.95
2023-02-08T02:45:32.810Z,42.65
2023-02-08T02:48:05.788Z,42.58
2023-02-08T02:50:38.387Z,41.65
2023-02-08T02:53:15.603Z,42.72
2023-02-08T02:55:46.785Z,44.50
2023-02-08T02:58:16.528Z,42.55
2023-02-08T03:00:43.228Z,43.03
2023-02-08T03:03:19.976Z,44.08
2023-02-08T03:05:47.345Z,42.17
2023-02-08T03:08:49.669Z,44.00
2023-02-08T03:11:28.218Z,41.80
2023-02-08T03:14:19.626Z,42.33
2023-02-08T03:17:23.572Z,42.83
2023-02-08T03:20:13.562Z,41.72
2023-02-08T03:22:46.943Z,38.58
2023-02-08T03:25:13.626Z,40.15
2023-02-08T03:27:51.553Z,37.50
2023-02-08T03:30:51.745Z,37.67
2023-02-08T03:33:30.768Z,37.10
2023-02-08T03:36:08.127Z,38.22
2023-02-08T03:38:41.806Z,37.40
2023-02-08T03:41:15.083Z,36.00
2023-02-08T03:44:05.531Z,36.47
2023-02-08T03:46:36.187Z,36.47
2023-02-08T03:49:08.582Z,36.70
2023-02-08T03:51:37.388Z,33.40
2023-02-08T03:54:07.944Z,33.75
2023-02-08T03:56:41.550Z,34.28
2023-02-08T03:59:15.376Z,33.13
2023-02-08T04:01:47.286Z,35.00
2023-02-08T04:04:15.602Z,34.10
2023-02-08T04:06:42.283Z,34.58
2023-02-08T04:09:09.085Z,33.72
2023-02-08T04:11:35.753Z,34.35
2023-02-08T04:14:02.500Z,35.05
2023-02-08T04:16:29.241Z,34.67
2023-02-08T04:18:55.916Z,35.15
2023-02-08T04:21:22.624Z,34.70
2023-02-08T04:23:49.304Z,35.13
2023-02-08T04:26:15.960Z,34.72
2023-02-08T04:28:42.625Z,35.17
2023-02-08T04:31:10.682Z,35.63
2023-02-08T04:33:37.437Z,32.88
2023-02-08T04:36:04.403Z,36.22
2023-02-08T04:38:31.467Z,34.22
2023-02-08T04:40:58.259Z,34.85
2023-02-08T04:43:25.113Z,36.10
2023-02-08T04:45:52.038Z,34.90
2023-02-08T04:48:19.792Z,35.17
2023-02-08T04:50:46.699Z,34.67
2023-02-08T04:53:13.832Z,35.22
2023-02-08T04:55:40.546Z,35.03
2023-02-08T04:58:07.266Z,36.00
2023-02-08T05:00:33.972Z,36.65
2023-02-08T05:03:00.704Z,37.30
2023-02-08T05:05:27.562Z,36.55
2023-02-08T05:07:54.439Z,38.08
2023-02-08T05:10:21.587Z,37.15
2023-02-08T05:12:48.311Z,36.15
2023-02-08T05:15:15.018Z,36.97
2023-02-08T05:17:41.659Z,37.13
2023-02-08T05:20:09.459Z,37.08
2023-02-08T05:22:36.451Z,37.65
2023-02-08T05:25:03.200Z,36.03
2023-02-08T05:27:30.068Z,37.80
2023-02-08T05:29:58.938Z,37.67
2023-02-08T05:32:26.133Z,39.28
2023-02-08T05:34:52.898Z,37.45
2023-02-08T05:37:19.830Z,39.13
2023-02-08T05:39:46.483Z,38.38
2023-02-08T05:42:13.143Z,37.88
2023-02-08T05:44:39.845Z,37.25
2023-02-08T05:47:06.611Z,38.75
2023-02-08T05:49:33.340Z,38.03
2023-02-08T05:52:00.040Z,40.03
2023-02-08T05:54:27.049Z,39.47
2023-02-08T05:56:53.657Z,37.55
2023-02-08T05:59:20.320Z,38.85
2023-02-08T06:01:46.979Z,39.70
2023-02-08T06:04:13.666Z,39.75
2023-02-08T06:06:40.401Z,41.05
2023-02-08T06:09:07.058Z,40.30
2023-02-08T06:11:33.769Z,40.22
2023-02-08T06:14:00.460Z,40.75
2023-02-08T06:16:27.233Z,40.50
2023-02-08T06:18:53.960Z,39.88
2023-02-08T06:21:21.153Z,39.40
2023-02-08T06:23:48.686Z,40.83
2023-02-08T06:26:15.436Z,40.33
2023-02-08T06:28:42.204Z,41.17
2023-02-08T06:31:08.850Z,40.42
2023-02-08T06:33:35.499Z,40.05
2023-02-08T06:36:02.196Z,41.53
2023-02-08T06:38:28.912Z,41.70
2023-02-08T06:40:55.715Z,42.13
2023-02-08T06:43:22.368Z,43.10
2023-02-08T06:45:49.140Z,43.40
2023-02-08T06:48:15.925Z,41.65
2023-02-08T06:50:42.941Z,43.00
2023-02-08T06:53:09.913Z,41.70
2023-02-08T06:55:36.593Z,42.03
2023-02-08T06:58:03.427Z,43.55
2023-02-08T07:00:30.286Z,41.25
2023-02-08T07:02:58.100Z,42.47
2023-02-08T07:05:24.892Z,42.45
2023-02-08T07:07:51.569Z,43.33
2023-02-08T07:10:18.275Z,43.35
2023-02-08T07:12:45.009Z,44.08
2023-02-08T07:15:11.718Z,42.70
2023-02-08T07:17:38.561Z,45.05
2023-02-08T07:20:05.654Z,43.40
2023-02-08T07:22:32.413Z,43.47
2023-02-08T07:24:59.105Z,42.95
2023-02-08T07:27:26.165Z,47.55
2023-02-08T07:29:52.904Z,42.28
2023-02-08T07:32:19.624Z,42.08
2023-02-08T07:34:46.370Z,42.85
2023-02-08T07:37:14.051Z,44.03
2023-02-08T07:39:40.769Z,42.05
2023-02-08T07:42:09.293Z,42.80
2023-02-08T07:44:39.461Z,42.55
2023-02-08T07:47:06.865Z,41.95
2023-02-08T07:49:33.868Z,44.85
2023-02-08T07:52:01.824Z,43.45
2023-02-08T07:54:29.876Z,43.03
2023-02-08T07:56:57.120Z,43.28
2023-02-08T07:59:23.964Z,44.03
2023-02-08T08:01:50.667Z,43.30
2023-02-08T08:04:17.569Z,44.15
2023-02-08T08:06:44.281Z,43.95
2023-02-08T08:09:10.964Z,43.65
2023-02-08T08:11:37.662Z,43.80
2023-02-08T08:14:04.392Z,43.90
2023-02-08T08:16:31.168Z,42.67
2023-02-08T08:18:58.046Z,44.63
2023-02-08T08:21:24.772Z,43.78
2023-02-08T08:23:51.462Z,44.58
2023-02-08T08:26:21.486Z,44.38
2023-02-08T08:28:49.075Z,43.97
2023-02-08T08:31:19.149Z,43.65
2023-02-08T08:33:46.561Z,44.65
2023-02-08T08:36:13.384Z,44.38
2023-02-08T08:38:40.040Z,44.58
2023-02-08T08:41:08.779Z,45.35
2023-02-08T08:43:35.571Z,46.13
2023-02-08T08:46:02.270Z,44.88
2023-02-08T08:48:28.988Z,45.47
2023-02-08T08:50:55.635Z,48.05
2023-02-08T08:53:23.028Z,47.90
2023-02-08T08:55:49.783Z,45.88
2023-02-08T08:58:16.549Z,48.03
2023-02-08T09:00:43.497Z,48.30
2023-02-08T09:03:10.435Z,48.95
2023-02-08T09:05:37.172Z,49.38
2023-02-08T09:08:03.930Z,48.88
2023-02-08T09:10:31.139Z,48.97
2023-02-08T09:12:58.691Z,49.78
2023-02-08T09:15:25.578Z,50.85
2023-02-08T09:17:52.306Z,49.72
2023-02-08T09:20:19.140Z,48.70
2023-02-08T09:22:45.918Z,48.83
2023-02-08T09:25:12.662Z,47.85
2023-02-08T09:27:39.304Z,47.85
2023-02-08T09:30:06.417Z,49.08
2023-02-08T09:32:33.638Z,46.65
2023-02-08T09:35:01.138Z,47.40
2023-02-08T09:37:28.583Z,48.25
2023-02-08T09:39:55.358Z,46.85
2023-02-08T09:42:32.163Z,46.47
2023-02-08T09:45:30.368Z,46.42
2023-02-08T09:48:11.854Z,47.55
2023-02-08T09:50:45.525Z,47.90
2023-02-08T09:53:15.046Z,48.75
2023-02-08T09:55:46.758Z,47.65
2023-02-08T09:58:26.407Z,48.50
2023-02-08T10:00:55.207Z,49.05
2023-02-08T10:03:41.697Z,50.00
2023-02-08T10:06:12.613Z,48.53
2023-02-08T10:08:40.831Z,49.67
2023-02-08T10:11:07.632Z,50.88
2023-02-08T10:13:46.750Z,49.72
2023-02-08T10:16:53.183Z,49.25
2023-02-08T10:19:41.824Z,50.72
2023-02-08T10:22:23.264Z,49.05
2023-02-08T10:24:52.940Z,49.10
2023-02-08T10:27:40.945Z,49.92
2023-02-08T10:30:16.330Z,49.92
2023-02-08T10:33:06.782Z,49.53
2023-02-08T10:35:36.839Z,49.28
2023-02-08T10:38:25.477Z,49.40
2023-02-08T10:40:59.793Z,51.90
2023-02-08T10:43:32.686Z,48.88
2023-02-08T10:46:14.223Z,49.00
2023-02-08T10:48:56.086Z,49.70
2023-02-08T10:51:22.768Z,49.63
2023-02-08T10:53:49.649Z,48.75
2023-02-08T10:56:49.906Z,48.72
2023-02-08T10:59:23.131Z,49.25
2023-02-08T11:01:50.632Z,47.60
2023-02-08T11:04:18.281Z,46.58
2023-02-08T11:06:46.847Z,47.22
2023-02-08T11:09:28.115Z,47.03
2023-02-08T11:11:56.331Z,47.10
2023-02-08T11:14:46.049Z,48.00
2023-02-08T11:17:44.400Z,46.88
2023-02-08T11:20:26.083Z,46.55
2023-02-08T11:22:53.101Z,46.47
2023-02-08T11:25:38.326Z,47.80
2023-02-08T11:28:21.273Z,47.17
2023-02-08T11:30:59.952Z,45.05
2023-02-08T11:33:28.177Z,45.38
2023-02-08T11:36:04.045Z,46.38
2023-02-08T11:38:33.459Z,45.10
2023-02-08T11:41:03.523Z,46.13
2023-02-08T11:43:33.221Z,47.45
2023-02-08T11:46:02.778Z,47.17
2023-02-08T11:48:40.834Z,46.88
2023-02-08T11:51:08.363Z,46.20
2023-02-08T11:53:39.826Z,45.28
2023-02-08T11:56:20.277Z,41.85
2023-02-08T11:59:00.430Z,44.15
2023-02-08T12:01:33.147Z,43.78
2023-02-08T12:04:04.530Z,43.53
2023-02-08T12:07:08.918Z,44.53
2023-02-08T12:09:54.400Z,44.38
2023-02-08T12:12:36.414Z,44.45
2023-02-08T12:15:15.376Z,44.30
2023-02-08T12:18:09.161Z,43.60
2023-02-08T12:20:35.911Z,43.25
2023-02-08T12:23:20.296Z,44.72
2023-02-08T12:25:52.893Z,44.10
2023-02-08T12:28:29.718Z,44.35
2023-02-08T12:31:05.841Z,44.35
2023-02-08T12:33:59.336Z,44.25
2023-02-08T12:36:51.161Z,44.05
2023-02-08T12:39:36.165Z,43.88
2023-02-08T12:42:18.299Z,44.72
2023-02-08T12:44:50.928Z,43.28
2023-02-08T12:48:03.351Z,41.97
2023-02-08T12:50:49.655Z,41.08
2023-02-08T12:53:35.007Z,41.53
2023-02-08T12:56:07.950Z,43.70
2023-02-08T12:58:45.713Z,42.15
2023-02-08T13:01:21.311Z,41.08
2023-02-08T13:06:29.089Z,41.88
2023-02-08T13:09:05.955Z,43.35
2023-02-08T13:11:52.041Z,42.75
2023-02-08T13:16:52.983Z,40.80
2023-02-08T13:19:25.405Z,42.50
2023-02-08T13:21:53.301Z,41.60
2023-02-08T13:24:31.296Z,42.15
2023-02-08T13:26:57.984Z,40.05
2023-02-08T13:29:28.152Z,40.05
2023-02-08T13:32:02.303Z,41.30
2023-02-08T13:34:31.787Z,38.45
2023-02-08T13:37:02.324Z,39.35
2023-02-08T13:39:41.830Z,41.35
2023-02-08T13:42:25.335Z,39.30
2023-02-08T13:44:55.097Z,40.22
2023-02-08T13:47:43.645Z,39.28
2023-02-08T13:50:57.298Z,39.40
2023-02-08T13:53:39.309Z,41.03
2023-02-08T13:56:09.945Z,39.83
2023-02-08T13:58:47.290Z,39.03
2023-02-08T14:01:20.535Z,39.08
2023-02-08T14:04:12.722Z,40.10
2023-02-08T14:06:53.241Z,39.53
2023-02-08T14:09:38.751Z,41.83
2023-02-08T14:12:45.480Z,40.20
2023-02-08T14:15:14.879Z,41.63
2023-02-08T14:17:47.292Z,40.78
2023-02-08T14:20:38.272Z,41.40
2023-02-08T14:23:20.304Z,40.53
2023-02-08T14:25:52.747Z,39.60
2023-02-08T14:28:26.928Z,39.60
2023-02-08T14:30:56.381Z,38.97
2023-02-08T14:33:39.536Z,39.67
2023-02-08T14:36:25.929Z,40.08
2023-02-08T14:39:07.033Z,39.28
2023-02-08T14:41:52.259Z,38.28
2023-02-08T14:44:37.941Z,36.88
2023-02-08T14:47:26.197Z,37.97
2023-02-08T14:50:04.235Z,37.08
2023-02-08T14:52:35.271Z,38.92
2023-02-08T14:55:15.525Z,39.80
2023-02-08T14:57:43.448Z,39.03
2023-02-08T15:00:23.923Z,38.67
2023-02-08T15:02:51.087Z,39.30
2023-02-08T15:05:29.931Z,38.28
2023-02-08T15:08:01.566Z,37.83
2023-02-08T15:10:30.100Z,38.17
2023-02-08T15:12:59.217Z,37.95
2023-02-08T15:15:36.014Z,39.17
2023-02-08T15:18:04.545Z,40.13
2023-02-08T15:20:33.625Z,39.97
2023-02-08T15:23:06.861Z,39.75
2023-02-08T15:25:38.070Z,41.10
2023-02-08T15:28:22.683Z,39.95
2023-02-08T15:31:00.461Z,39.70
2023-02-08T15:33:27.957Z,37.85
2023-02-08T15:36:06.517Z,39.58
2023-02-08T15:38:36.372Z,38.63
2023-02-08T15:41:12.949Z,39.10
2023-02-08T15:43:41.953Z,40.10
2023-02-08T15:46:17.655Z,39.15
2023-02-08T15:51:13.857Z,38.92
2023-02-08T15:53:46.817Z,39.85
2023-02-08T15:56:35.356Z,38.20
2023-02-08T15:59:05.470Z,39.22
2023-02-08T16:01:32.411Z,39.42
2023-02-08T16:04:03.299Z,41.17
2023-02-08T16:06:35.603Z,39.85
2023-02-08T16:09:03.247Z,40.00
2023-02-08T16:11:32.888Z,41.22
2023-02-08T16:14:02.173Z,39.95
2023-02-08T16:16:45.568Z,39.95
2023-02-08T16:19:28.967Z,40.58
2023-02-08T16:22:17.091Z,39.08
2023-02-08T16:24:43.903Z,37.80
2023-02-08T16:27:30.725Z,39.10
2023-02-08T16:29:58.261Z,38.95
2023-02-08T16:32:35.225Z,38.80
2023-02-08T16:35:12.858Z,38.47
2023-02-08T16:37:39.682Z,38.97
2023-02-08T16:40:44.242Z,39.42
2023-02-08T16:43:20.088Z,38.88
2023-02-08T16:48:34.204Z,38.67
2023-02-08T16:51:03.492Z,40.15
2023-02-08T16:53:41.278Z,38.63
2023-02-08T16:56:10.212Z,39.13
2023-02-08T16:58:37.431Z,39.13
2023-02-08T17:01:04.334Z,41.25
2023-02-08T17:03:31.106Z,39.50
2023-02-08T17:05:59.166Z,40.97
2023-02-08T17:08:26.798Z,39.33
2023-02-08T17:10:53.556Z,40.60
2023-02-08T17:13:21.403Z,40.17
2023-02-08T17:15:50.415Z,41.17
2023-02-08T17:18:17.837Z,40.30
2023-02-08T17:20:45.203Z,40.30
2023-02-08T17:23:12.879Z,41.08
2023-02-08T17:25:39.953Z,41.60
2023-02-08T17:28:15.719Z,41.83
2023-02-08T17:30:44.233Z,39.55
2023-02-08T17:33:13.239Z,40.22
2023-02-08T17:35:39.933Z,41.60
2023-02-08T17:38:06.664Z,40.92
2023-02-08T17:40:36.275Z,40.03
2023-02-08T17:43:04.009Z,42.53
2023-02-08T17:45:31.068Z,41.55
2023-02-08T17:48:00.317Z,41.30
2023-02-08T17:50:27.504Z,42.90
2023-02-08T17:52:54.207Z,41.22
2023-02-08T17:55:21.315Z,41.65
2023-02-08T17:57:48.166Z,42.53
2023-02-08T18:00:17.944Z,53.15
2023-02-08T18:02:46.801Z,45.83
2023-02-08T18:05:18.901Z,48.17
2023-02-08T18:07:45.681Z,42.25
2023-02-08T18:10:14.561Z,41.58
2023-02-08T18:12:42.091Z,43.97
2023-02-08T18:15:11.680Z,41.95
2023-02-08T18:17:39.344Z,41.92
2023-02-08T18:20:07.198Z,41.38
2023-02-08T18:22:34.374Z,39.58
2023-02-08T18:25:01.060Z,39.45
2023-02-08T18:27:27.749Z,40.22
2023-02-08T18:29:54.794Z,40.30
2023-02-08T18:32:21.541Z,40.13
2023-02-08T18:34:49.444Z,40.47
2023-02-08T18:37:16.408Z,42.35
2023-02-08T18:39:43.293Z,40.83
2023-02-08T18:42:10.064Z,39.47
2023-02-08T18:44:37.785Z,40.28
2023-02-08T18:47:05.723Z,39.33
2023-02-08T18:49:32.733Z,40.05
2023-02-08T18:51:59.595Z,38.83
2023-02-08T18:54:26.457Z,40.92
2023-02-08T18:56:53.236Z,40.80
2023-02-08T18:59:19.901Z,41.72
2023-02-08T19:01:46.602Z,40.05
2023-02-08T19:04:13.426Z,41.30
2023-02-08T19:06:40.154Z,40.70
2023-02-08T19:09:07.890Z,41.78
2023-02-08T19:11:39.862Z,41.10
2023-02-08T19:14:10.716Z,41.00
2023-02-08T19:16:37.968Z,42.85
2023-02-08T19:19:06.249Z,39.50
2023-02-08T19:21:33.650Z,40.83
2023-02-08T19:24:01.051Z,41.45
2023-02-08T19:26:30.692Z,43.33
2023-02-08T19:28:59.356Z,42.17
2023-02-08T19:31:27.847Z,41.88
2023-02-08T19:33:56.504Z,42.42
2023-02-08T19:36:31.907Z,41.78
2023-02-08T19:38:59.959Z,42.22
2023-02-08T19:41:32.142Z,42.38
2023-02-08T19:44:00.347Z,40.78
2023-02-08T19:46:28.130Z,43.00
2023-02-08T19:48:57.536Z,43.38
2023-02-08T19:51:24.206Z,41.45
2023-02-08T19:53:50.902Z,43.72
2023-02-08T19:56:19.022Z,42.38
2023-02-08T19:58:46.608Z,41.45
2023-02-08T20:01:19.315Z,40.55
2023-02-08T20:03:47.120Z,42.60
2023-02-08T20:06:19.920Z,43.08
2023-02-08T20:08:47.366Z,42.78
2023-02-08T20:11:17.703Z,42.33
2023-02-08T20:13:44.941Z,40.90
2023-02-08T20:16:12.022Z,41.30
2023-02-08T20:18:39.145Z,40.78
2023-02-08T20:21:06.528Z,42.45
2023-02-08T20:23:36.022Z,42.13
2023-02-08T20:26:27.270Z,40.97
2023-02-08T20:28:58.913Z,42.38
2023-02-08T20:31:32.397Z,40.72
2023-02-08T20:34:01.751Z,39.88
2023-02-08T20:36:30.742Z,41.28
2023-02-08T20:38:58.837Z,42.17
2023-02-08T20:41:28.155Z,41.55
2023-02-08T20:43:54.854Z,41.28
2023-02-08T20:46:30.248Z,54.50
2023-02-08T20:48:59.028Z,41.30
2023-02-08T20:51:26.871Z,39.40
2023-02-08T20:53:54.566Z,40.92
2023-02-08T20:56:24.276Z,39.22
2023-02-08T20:58:51.671Z,38.88
2023-02-08T21:01:22.091Z,39.75
2023-02-08T21:03:49.313Z,39.10
2023-02-08T21:06:17.587Z,40.08
2023-02-08T21:08:45.111Z,39.25
2023-02-08T21:11:12.093Z,37.72
2023-02-08T21:13:39.009Z,38.75
2023-02-08T21:16:09.970Z,39.78
2023-02-08T21:18:37.711Z,38.65
2023-02-08T21:21:05.434Z,37.28
2023-02-08T21:23:32.617Z,36.35
2023-02-08T21:26:00.210Z,38.55
2023-02-08T21:28:27.208Z,36.70
2023-02-08T21:31:03.949Z,37.53
2023-02-08T21:33:30.944Z,36.88
2023-02-08T21:36:01.867Z,36.10
2023-02-08T21:38:28.932Z,36.80
2023-02-08T21:40:55.692Z,36.03
2023-02-08T21:43:22.397Z,35.75
2023-02-08T21:45:49.157Z,36.03
2023-02-08T21:48:15.808Z,35.83
2023-02-08T21:50:43.095Z,34.92
2023-02-08T21:53:12.534Z,36.00
2023-02-08T21:55:44.111Z,35.85
2023-02-08T21:58:10.849Z,34.22
2023-02-08T22:00:37.616Z,35.95
2023-02-08T22:03:05.168Z,35.15
2023-02-08T22:05:31.933Z,35.03
2023-02-08T22:07:59.176Z,35.67
2023-02-08T22:10:28.618Z,33.05
2023-02-08T22:12:55.856Z,33.25
2023-02-08T22:15:25.425Z,33.80
2023-02-08T22:17:53.442Z,32.67
2023-02-08T22:20:20.273Z,32.92
2023-02-08T22:22:47.033Z,32.97
2023-02-08T22:25:14.131Z,31.00
2023-02-08T22:27:40.844Z,32.72
2023-02-08T22:30:09.706Z,32.55
2023-02-08T22:32:40.343Z,32.42
2023-02-08T22:35:07.780Z,32.28
2023-02-08T22:37:35.138Z,31.95
2023-02-08T22:40:02.265Z,35.95
2023-02-08T22:42:28.943Z,34.10
2023-02-08T22:44:55.917Z,33.53
2023-02-08T22:47:23.045Z,32.78
2023-02-08T22:49:49.732Z,32.13
2023-02-08T22:52:16.612Z,32.95
2023-02-08T22:54:43.826Z,34.45
2023-02-08T22:57:10.890Z,32.05
2023-02-08T22:59:38.649Z,33.03
2023-02-08T23:02:05.577Z,31.13
2023-02-08T23:04:32.538Z,30.88
2023-02-08T23:07:00.255Z,31.77
2023-02-08T23:09:27.050Z,30.80
2023-02-08T23:11:54.042Z,31.10
2023-02-08T23:14:20.836Z,31.55
2023-02-08T23:16:47.690Z,31.70
2023-02-08T23:19:16.681Z,31.50
2023-02-08T23:21:44.240Z,32.25
2023-02-08T23:24:11.293Z,33.95
2023-02-08T23:26:38.050Z,32.22
2023-02-08T23:29:04.781Z,31.15
2023-02-08T23:31:31.639Z,32.15
2023-02-08T23:33:59.228Z,31.08
2023-02-08T23:36:26.413Z,29.65
2023-02-08T23:38:53.098Z,30.88
2023-02-08T23:41:22.049Z,30.15
2023-02-08T23:43:51.101Z,30.50
2023-02-08T23:46:21.082Z,30.92
2023-02-08T23:48:47.915Z,30.15
2023-02-08T23:51:15.959Z,29.20
2023-02-08T23:53:42.705Z,29.92
2023-02-08T23:56:12.441Z,28.85
2023-02-08T23:58:39.191Z,27.55
